createdAt,value
2024-01-20T06:39:20.222Z,7.64
2024-01-20T06:41:47.223Z,8.31
2024-01-20T06:44:14.258Z,8.39
2024-01-20T06:46:41.363Z,8.46
2024-01-20T06:49:08.436Z,8.83
2024-01-20T06:51:35.499Z,9.28
2024-01-20T06:54:02.555Z,9.24
2024-01-20T06:56:29.556Z,9.40
2024-01-20T06:58:57.834Z,9.57
2024-01-20T07:01:25.371Z,9.76
2024-01-20T07:03:52.338Z,9.33
2024-01-20T07:06:19.288Z,9.34
2024-01-20T07:08:46.121Z,9.56
2024-01-20T07:11:12.817Z,9.24
2024-01-20T07:13:39.513Z,9.14
2024-01-20T07:16:06.286Z,9.17
2024-01-20T07:18:33.013Z,8.93
2024-01-20T07:20:59.705Z,9.03
2024-01-20T07:23:26.549Z,8.62
2024-01-20T07:25:53.186Z,8.58
2024-01-20T07:28:19.885Z,8.58
2024-01-20T07:30:46.675Z,8.70
2024-01-20T07:33:13.441Z,8.74
2024-01-20T07:35:40.416Z,9.12
2024-01-20T07:38:07.151Z,8.98
2024-01-20T07:40:33.832Z,9.20
2024-01-20T07:43:00.618Z,8.69
2024-01-20T07:45:27.558Z,8.55
2024-01-20T07:47:54.368Z,8.49
2024-01-20T07:50:21.196Z,8.85
2024-01-20T07:52:48.075Z,9.14
2024-01-20T07:55:14.783Z,9.41
2024-01-20T07:57:41.622Z,9.31
2024-01-20T08:00:08.460Z,9.56
2024-01-20T08:02:35.399Z,9.64
2024-01-20T08:05:02.293Z,9.64
2024-01-20T08:07:29.252Z,9.23
2024-01-20T08:09:56.143Z,9.60
2024-01-20T08:12:23.117Z,9.80
2024-01-20T08:14:50.077Z,9.86
2024-01-20T08:17:16.954Z,9.64
2024-01-20T08:19:43.980Z,9.58
2024-01-20T08:22:10.849Z,9.19
2024-01-20T08:24:37.865Z,9.05
2024-01-20T08:27:04.876Z,8.85
2024-01-20T08:29:31.818Z,8.85
2024-01-20T08:31:58.727Z,9.29
2024-01-20T08:34:25.788Z,8.79
2024-01-20T08:36:52.889Z,8.60
2024-01-20T10:58:46.515Z,8.88
2024-01-20T11:01:13.511Z,8.30
2024-01-20T11:03:40.443Z,8.47
2024-01-20T11:06:07.341Z,8.49
2024-01-20T11:08:34.158Z,8.76
2024-01-20T11:11:00.867Z,7.46
2024-01-20T11:13:27.628Z,6.82
2024-01-20T11:15:54.453Z,7.15
2024-01-20T11:18:21.553Z,6.09
2024-01-20T11:20:48.283Z,5.31
2024-01-20T11:23:15.062Z,5.29
2024-01-20T11:25:41.879Z,4.93
2024-01-20T11:28:08.669Z,4.92
2024-01-20T11:30:35.409Z,4.63
2024-01-20T11:33:02.378Z,5.06
2024-01-20T11:35:29.191Z,5.11
2024-01-20T11:37:56.112Z,4.89
2024-01-20T11:40:22.874Z,5.07
2024-01-20T11:42:49.991Z,6.25
2024-01-20T11:45:16.733Z,7.00
2024-01-20T11:47:43.553Z,6.98
2024-01-20T11:50:10.351Z,11.87
2024-01-20T11:52:37.266Z,9.92
2024-01-20T11:55:03.950Z,9.47
2024-01-20T11:57:30.694Z,8.34
2024-01-20T11:59:57.451Z,7.17
2024-01-20T12:02:24.529Z,7.17
2024-01-20T12:04:52.259Z,6.98
2024-01-20T12:07:20.495Z,6.99
2024-01-20T12:09:47.789Z,7.13
2024-01-20T12:12:14.744Z,7.14
2024-01-20T12:14:41.692Z,6.88
2024-01-20T12:17:08.765Z,7.11
2024-01-20T12:19:35.982Z,6.67
2024-01-20T12:22:02.951Z,6.30
2024-01-20T13:15:06.312Z,7.32
2024-01-20T13:17:33.631Z,7.49
2024-01-20T13:20:00.633Z,7.12
2024-01-20T13:22:27.533Z,6.98
2024-01-20T13:24:55.274Z,7.08
2024-01-20T13:27:22.252Z,7.59
2024-01-20T13:29:49.583Z,7.62
2024-01-20T17:40:36.000Z,9.88
2024-01-20T17:49:02.249Z,13.37
2024-01-20T17:51:33.027Z,12.62
2024-01-20T17:54:01.377Z,13.45
2024-01-20T17:56:33.503Z,14.05
2024-01-20T17:59:04.780Z,14.58
2024-01-20T18:01:33.904Z,15.17
2024-01-20T18:04:02.880Z,16.83
2024-01-20T18:06:31.210Z,16.53
2024-01-20T18:08:59.143Z,18.54
2024-01-20T18:11:28.014Z,18.37
2024-01-20T18:13:56.211Z,18.45
2024-01-20T18:16:23.713Z,19.00
2024-01-20T18:18:51.542Z,20.43
2024-01-20T18:21:19.079Z,18.88
2024-01-20T18:23:46.183Z,18.52
2024-01-20T18:26:13.359Z,17.65
2024-01-20T18:28:40.305Z,15.52
2024-01-20T19:29:56.385Z,18.34
2024-01-20T19:53:45.261Z,18.32
2024-01-20T19:56:12.153Z,21.44
2024-01-20T20:09:33.298Z,18.95
2024-01-20T20:32:03.740Z,18.21
2024-01-20T20:34:33.236Z,18.41
2024-01-20T21:37:37.192Z,14.54
2024-01-20T22:38:03.168Z,15.71
2024-01-20T22:40:32.719Z,15.77
2024-01-20T23:40:23.928Z,17.22
2024-01-20T23:42:50.973Z,19.68
2024-01-20T23:45:17.948Z,20.19
2024-01-20T23:47:45.005Z,18.59
2024-01-20T23:50:12.335Z,17.94
2024-01-20T23:52:39.696Z,17.33
2024-01-20T23:55:07.113Z,17.12
2024-01-20T23:57:34.619Z,17.62
